sensor_id;sensor_type;location;lat;lon;timestamp;pressure;altitude;pressure_sealevel;temperature;humidity
49943;BME280;36011;53.362;58.948;2023-04-29T00:00:57;96853.75;;;9.36;64.30
49943;BME280;36011;53.362;58.948;2023-04-29T00:04:03;96857.00;;;9.25;64.42
49943;BME280;36011;53.362;58.948;2023-04-29T00:07:08;96859.81;;;9.22;64.46
49943;BME280;36011;53.362;58.948;2023-04-29T00:10:13;96859.09;;;9.20;64.76
49943;BME280;36011;53.362;58.948;2023-04-29T00:13:17;96864.66;;;9.14;64.55
49943;BME280;36011;53.362;58.948;2023-04-29T00:16:21;96868.25;;;9.13;64.65
49943;BME280;36011;53.362;58.948;2023-04-29T00:19:24;96864.84;;;9.11;64.37
49943;BME280;36011;53.362;58.948;2023-04-29T00:22:27;96871.84;;;8.96;63.94
49943;BME280;36011;53.362;58.948;2023-04-29T00:25:30;96866.88;;;8.91;64.31
49943;BME280;36011;53.362;58.948;2023-04-29T00:28:33;96869.66;;;8.88;63.97
49943;BME280;36011;53.362;58.948;2023-04-29T00:31:36;96861.44;;;8.94;64.57
49943;BME280;36011;53.362;58.948;2023-04-29T00:34:40;96865.09;;;8.92;63.93
49943;BME280;36011;53.362;58.948;2023-04-29T00:37:44;96866.50;;;8.83;64.30
49943;BME280;36011;53.362;58.948;2023-04-29T00:40:48;96853.53;;;8.80;64.57
49943;BME280;36011;53.362;58.948;2023-04-29T00:43:51;96863.47;;;8.75;64.14
49943;BME280;36011;53.362;58.948;2023-04-29T00:46:55;96867.94;;;8.73;64.29
49943;BME280;36011;53.362;58.948;2023-04-29T00:50:00;96858.78;;;8.80;64.35
49943;BME280;36011;53.362;58.948;2023-04-29T00:53:03;96873.38;;;8.70;64.03
49943;BME280;36011;53.362;58.948;2023-04-29T00:56:07;96865.50;;;8.70;64.19
49943;BME280;36011;53.362;58.948;2023-04-29T00:59:11;96875.72;;;8.74;63.82
49943;BME280;36011;53.362;58.948;2023-04-29T01:02:16;96865.63;;;8.83;64.08
49943;BME280;36011;53.362;58.948;2023-04-29T01:05:22;96872.56;;;8.84;63.65
49943;BME280;36011;53.362;58.948;2023-04-29T01:18:25;96887.53;;;8.97;63.57
49943;BME280;36011;53.362;58.948;2023-04-29T01:21:30;96887.53;;;8.97;63.35
49943;BME280;36011;53.362;58.948;2023-04-29T01:24:33;96887.91;;;9.06;63.37
49943;BME280;36011;53.362;58.948;2023-04-29T01:27:40;96891.47;;;9.05;63.71
49943;BME280;36011;53.362;58.948;2023-04-29T01:37:24;96902.44;;;9.11;63.17
49943;BME280;36011;53.362;58.948;2023-04-29T01:40:36;96910.06;;;9.16;63.36
49943;BME280;36011;53.362;58.948;2023-04-29T01:43:40;96915.31;;;9.16;63.05
49943;BME280;36011;53.362;58.948;2023-04-29T01:46:47;96923.59;;;9.24;62.80
49943;BME280;36011;53.362;58.948;2023-04-29T01:49:52;96920.34;;;9.35;62.84
49943;BME280;36011;53.362;58.948;2023-04-29T01:52:56;96920.50;;;9.32;62.50
49943;BME280;36011;53.362;58.948;2023-04-29T01:55:59;96929.72;;;9.39;62.39
49943;BME280;36011;53.362;58.948;2023-04-29T01:59:03;96929.63;;;9.40;62.17
49943;BME280;36011;53.362;58.948;2023-04-29T02:02:06;96930.50;;;9.55;62.00
49943;BME280;36011;53.362;58.948;2023-04-29T02:05:09;96930.50;;;9.55;61.86
49943;BME280;36011;53.362;58.948;2023-04-29T02:08:13;96939.13;;;9.57;61.88
49943;BME280;36011;53.362;58.948;2023-04-29T02:11:16;96933.97;;;9.56;61.92
49943;BME280;36011;53.362;58.948;2023-04-29T02:14:20;96943.19;;;9.63;62.06
49943;BME280;36011;53.362;58.948;2023-04-29T02:17:23;96940.63;;;9.76;61.54
49943;BME280;36011;53.362;58.948;2023-04-29T02:20:27;96938.31;;;9.71;61.50
49943;BME280;36011;53.362;58.948;2023-04-29T02:23:30;96957.06;;;9.79;61.77
49943;BME280;36011;53.362;58.948;2023-04-29T02:26:33;96957.63;;;9.84;61.12
49943;BME280;36011;53.362;58.948;2023-04-29T02:29:36;96954.34;;;9.81;61.19
49943;BME280;36011;53.362;58.948;2023-04-29T02:32:39;96964.09;;;9.93;61.18
49943;BME280;36011;53.362;58.948;2023-04-29T02:35:43;96962.63;;;9.89;60.88
49943;BME280;36011;53.362;58.948;2023-04-29T02:38:46;96959.63;;;9.95;60.97
49943;BME280;36011;53.362;58.948;2023-04-29T02:41:55;96965.63;;;9.97;60.81
49943;BME280;36011;53.362;58.948;2023-04-29T02:44:59;96972.88;;;10.08;60.63
49943;BME280;36011;53.362;58.948;2023-04-29T02:48:04;96972.50;;;10.14;60.33
49943;BME280;36011;53.362;58.948;2023-04-29T02:51:08;96979.16;;;10.20;60.34
49943;BME280;36011;53.362;58.948;2023-04-29T02:54:11;96966.72;;;10.22;60.01
49943;BME280;36011;53.362;58.948;2023-04-29T02:57:14;96978.53;;;10.30;59.90
49943;BME280;36011;53.362;58.948;2023-04-29T03:00:16;96990.06;;;10.42;59.82
49943;BME280;36011;53.362;58.948;2023-04-29T03:03:19;96992.03;;;10.39;59.59
49943;BME280;36011;53.362;58.948;2023-04-29T03:06:22;96982.81;;;10.46;59.56
49943;BME280;36011;53.362;58.948;2023-04-29T03:09:25;96984.78;;;10.56;59.33
49943;BME280;36011;53.362;58.948;2023-04-29T03:12:29;96985.44;;;10.60;59.06
49943;BME280;36011;53.362;58.948;2023-04-29T03:15:32;96974.31;;;10.69;59.05
49943;BME280;36011;53.362;58.948;2023-04-29T03:18:35;96970.25;;;10.78;58.85
49943;BME280;36011;53.362;58.948;2023-04-29T03:21:38;96976.72;;;10.87;58.67
49943;BME280;36011;53.362;58.948;2023-04-29T03:24:42;96975.53;;;11.05;58.31
49943;BME280;36011;53.362;58.948;2023-04-29T03:27:46;96978.72;;;11.10;58.15
49943;BME280;36011;53.362;58.948;2023-04-29T03:30:49;96988.22;;;11.13;58.11
49943;BME280;36011;53.362;58.948;2023-04-29T03:33:53;96990.03;;;11.25;57.82
49943;BME280;36011;53.362;58.948;2023-04-29T03:36:57;96995.31;;;11.38;57.56
49943;BME280;36011;53.362;58.948;2023-04-29T03:39:59;97005.34;;;11.45;57.23
49943;BME280;36011;53.362;58.948;2023-04-29T03:43:02;96994.84;;;11.58;57.11
49943;BME280;36011;53.362;58.948;2023-04-29T03:46:04;97000.47;;;11.66;56.69
49943;BME280;36011;53.362;58.948;2023-04-29T03:49:07;97003.84;;;11.81;56.44
49943;BME280;36011;53.362;58.948;2023-04-29T03:52:11;97001.25;;;11.94;56.07
49943;BME280;36011;53.362;58.948;2023-04-29T03:55:14;97000.19;;;11.97;55.68
49943;BME280;36011;53.362;58.948;2023-04-29T03:58:18;97000.41;;;12.06;55.67
49943;BME280;36011;53.362;58.948;2023-04-29T04:01:21;97002.28;;;12.30;55.01
49943;BME280;36011;53.362;58.948;2023-04-29T04:04:24;96998.06;;;12.40;54.88
49943;BME280;36011;53.362;58.948;2023-04-29T04:07:28;97009.13;;;12.58;54.44
49943;BME280;36011;53.362;58.948;2023-04-29T04:10:31;97004.31;;;12.76;53.91
49943;BME280;36011;53.362;58.948;2023-04-29T04:13:35;97005.38;;;12.86;53.84
49943;BME280;36011;53.362;58.948;2023-04-29T04:16:39;97013.41;;;13.09;52.78
49943;BME280;36011;53.362;58.948;2023-04-29T04:19:42;97011.16;;;13.15;52.13
49943;BME280;36011;53.362;58.948;2023-04-29T04:22:46;97013.47;;;13.20;52.11
49943;BME280;36011;53.362;58.948;2023-04-29T04:25:50;97015.97;;;13.34;51.92
49943;BME280;36011;53.362;58.948;2023-04-29T04:28:55;97017.03;;;13.56;51.56
49943;BME280;36011;53.362;58.948;2023-04-29T04:31:59;97017.38;;;13.86;51.02
49943;BME280;36011;53.362;58.948;2023-04-29T04:35:02;97024.63;;;13.96;50.33
49943;BME280;36011;53.362;58.948;2023-04-29T04:38:06;97031.63;;;14.08;50.45
49943;BME280;36011;53.362;58.948;2023-04-29T04:41:11;97025.97;;;14.24;49.93
49943;BME280;36011;53.362;58.948;2023-04-29T04:44:15;97029.50;;;14.35;49.62
49943;BME280;36011;53.362;58.948;2023-04-29T04:47:18;97031.31;;;14.57;49.35
49943;BME280;36011;53.362;58.948;2023-04-29T04:50:21;97036.75;;;16.39;47.01
49943;BME280;36011;53.362;58.948;2023-04-29T04:53:24;97046.97;;;21.03;39.89
49943;BME280;36011;53.362;58.948;2023-04-29T04:56:28;97043.56;;;25.51;34.13
49943;BME280;36011;53.362;58.948;2023-04-29T04:59:32;97062.03;;;29.07;30.07
49943;BME280;36011;53.362;58.948;2023-04-29T05:02:34;97061.53;;;31.94;28.20
49943;BME280;36011;53.362;58.948;2023-04-29T05:05:37;97057.53;;;33.96;24.66
49943;BME280;36011;53.362;58.948;2023-04-29T05:08:41;97065.66;;;35.60;23.66
49943;BME280;36011;53.362;58.948;2023-04-29T05:11:44;97056.16;;;37.14;21.13
49943;BME280;36011;53.362;58.948;2023-04-29T05:14:51;97064.31;;;38.14;19.88
49943;BME280;36011;53.362;58.948;2023-04-29T05:17:55;97066.56;;;39.14;18.14
49943;BME280;36011;53.362;58.948;2023-04-29T05:20:59;97064.56;;;40.15;16.87
49943;BME280;36011;53.362;58.948;2023-04-29T05:24:02;97069.94;;;40.36;17.26
49943;BME280;36011;53.362;58.948;2023-04-29T05:27:05;97065.75;;;41.12;16.43
49943;BME280;36011;53.362;58.948;2023-04-29T05:30:09;97064.94;;;41.36;15.08
49943;BME280;36011;53.362;58.948;2023-04-29T05:33:12;97066.94;;;42.02;12.33
49943;BME280;36011;53.362;58.948;2023-04-29T05:36:15;97064.94;;;42.46;13.89
49943;BME280;36011;53.362;58.948;2023-04-29T05:39:18;97056.94;;;42.96;12.56
49943;BME280;36011;53.362;58.948;2023-04-29T05:42:23;97061.91;;;43.54;13.60
49943;BME280;36011;53.362;58.948;2023-04-29T05:45:25;97070.19;;;44.23;12.48
49943;BME280;36011;53.362;58.948;2023-04-29T05:48:28;97062.16;;;45.34;12.75
49943;BME280;36011;53.362;58.948;2023-04-29T05:51:31;97072.25;;;46.27;12.13
49943;BME280;36011;53.362;58.948;2023-04-29T05:54:35;97066.28;;;47.24;9.85
49943;BME280;36011;53.362;58.948;2023-04-29T05:57:38;97073.00;;;47.71;11.32
49943;BME280;36011;53.362;58.948;2023-04-29T06:00:41;97080.00;;;48.06;10.34
49943;BME280;36011;53.362;58.948;2023-04-29T06:03:45;97075.00;;;48.42;9.00
49943;BME280;36011;53.362;58.948;2023-04-29T06:06:48;97075.13;;;48.45;10.63
49943;BME280;36011;53.362;58.948;2023-04-29T06:09:51;97086.81;;;49.02;11.29
49943;BME280;36011;53.362;58.948;2023-04-29T06:12:54;97081.91;;;49.44;9.40
49943;BME280;36011;53.362;58.948;2023-04-29T06:15:57;97075.38;;;49.40;10.10
49943;BME280;36011;53.362;58.948;2023-04-29T06:19:00;97081.34;;;49.75;9.40
49943;BME280;36011;53.362;58.948;2023-04-29T06:22:04;97083.19;;;50.08;9.42
49943;BME280;36011;53.362;58.948;2023-04-29T06:25:08;97080.66;;;50.84;7.68
49943;BME280;36011;53.362;58.948;2023-04-29T06:28:10;97074.69;;;50.57;8.05
49943;BME280;36011;53.362;58.948;2023-04-29T06:31:12;97079.03;;;50.54;8.04
49943;BME280;36011;53.362;58.948;2023-04-29T06:34:15;97083.88;;;50.98;7.55
49943;BME280;36011;53.362;58.948;2023-04-29T06:37:18;97073.63;;;50.90;7.54
49943;BME280;36011;53.362;58.948;2023-04-29T06:40:21;97081.28;;;50.37;7.61
49943;BME280;36011;53.362;58.948;2023-04-29T06:43:28;97078.03;;;51.03;6.77
49943;BME280;36011;53.362;58.948;2023-04-29T06:46:30;97083.94;;;51.46;6.74
49943;BME280;36011;53.362;58.948;2023-04-29T06:49:33;97079.94;;;51.15;6.86
49943;BME280;36011;53.362;58.948;2023-04-29T06:52:36;97092.66;;;51.12;7.23
49943;BME280;36011;53.362;58.948;2023-04-29T06:55:39;97084.47;;;51.99;7.51
49943;BME280;36011;53.362;58.948;2023-04-29T06:58:43;97093.44;;;52.59;6.28
49943;BME280;36011;53.362;58.948;2023-04-29T07:01:46;97092.22;;;53.18;6.79
49943;BME280;36011;53.362;58.948;2023-04-29T07:04:50;97097.38;;;52.74;6.78
49943;BME280;36011;53.362;58.948;2023-04-29T07:07:54;97078.06;;;50.91;7.88
49943;BME280;36011;53.362;58.948;2023-04-29T07:10:58;97071.56;;;47.94;8.33
49943;BME280;36011;53.362;58.948;2023-04-29T07:14:00;97059.84;;;45.59;9.38
49943;BME280;36011;53.362;58.948;2023-04-29T07:17:02;97064.00;;;45.08;9.29
49943;BME280;36011;53.362;58.948;2023-04-29T07:20:05;97064.81;;;45.39;8.97
49943;BME280;36011;53.362;58.948;2023-04-29T07:23:08;97076.91;;;47.69;7.72
49943;BME280;36011;53.362;58.948;2023-04-29T07:26:12;97070.88;;;49.72;6.90
49943;BME280;36011;53.362;58.948;2023-04-29T07:29:15;97075.31;;;49.61;7.36
49943;BME280;36011;53.362;58.948;2023-04-29T07:32:18;97075.59;;;50.73;6.47
49943;BME280;36011;53.362;58.948;2023-04-29T07:35:21;97075.00;;;51.72;6.20
49943;BME280;36011;53.362;58.948;2023-04-29T07:38:25;97079.25;;;52.17;6.03
49943;BME280;36011;53.362;58.948;2023-04-29T07:41:29;97088.91;;;51.52;6.46
49943;BME280;36011;53.362;58.948;2023-04-29T07:44:33;97077.22;;;50.90;6.77
49943;BME280;36011;53.362;58.948;2023-04-29T07:47:37;97076.53;;;52.75;6.29
49943;BME280;36011;53.362;58.948;2023-04-29T07:50:40;97087.44;;;54.18;6.16
49943;BME280;36011;53.362;58.948;2023-04-29T07:53:44;97096.16;;;54.97;5.31
49943;BME280;36011;53.362;58.948;2023-04-29T07:56:47;97087.69;;;55.34;5.41
49943;BME280;36011;53.362;58.948;2023-04-29T07:59:51;97080.81;;;55.83;5.19
49943;BME280;36011;53.362;58.948;2023-04-29T08:02:54;97080.44;;;55.81;5.37
49943;BME280;36011;53.362;58.948;2023-04-29T08:06:01;97086.25;;;54.76;5.43
49943;BME280;36011;53.362;58.948;2023-04-29T08:09:04;97076.25;;;54.52;5.94
49943;BME280;36011;53.362;58.948;2023-04-29T08:12:08;97084.72;;;54.86;5.68
49943;BME280;36011;53.362;58.948;2023-04-29T08:15:12;97071.94;;;53.75;5.83
49943;BME280;36011;53.362;58.948;2023-04-29T08:18:15;97072.22;;;52.42;6.03
49943;BME280;36011;53.362;58.948;2023-04-29T08:21:18;97068.59;;;52.06;6.23
49943;BME280;36011;53.362;58.948;2023-04-29T08:24:22;97069.44;;;51.91;6.29
49943;BME280;36011;53.362;58.948;2023-04-29T08:27:26;97058.59;;;52.25;5.46
49943;BME280;36011;53.362;58.948;2023-04-29T08:30:30;97060.22;;;51.91;6.17
49943;BME280;36011;53.362;58.948;2023-04-29T08:33:33;97056.53;;;49.49;7.04
49943;BME280;36011;53.362;58.948;2023-04-29T08:36:36;97049.00;;;49.16;7.17
49943;BME280;36011;53.362;58.948;2023-04-29T08:39:40;97041.59;;;46.88;7.72
49943;BME280;36011;53.362;58.948;2023-04-29T08:42:48;97041.09;;;47.12;7.96
49943;BME280;36011;53.362;58.948;2023-04-29T08:45:51;97050.56;;;48.39;7.15
49943;BME280;36011;53.362;58.948;2023-04-29T08:48:54;97038.84;;;46.79;7.66
49943;BME280;36011;53.362;58.948;2023-04-29T08:51:59;97033.63;;;46.00;7.74
49943;BME280;36011;53.362;58.948;2023-04-29T08:55:03;97043.06;;;47.03;7.60
49943;BME280;36011;53.362;58.948;2023-04-29T08:58:07;97044.75;;;46.87;7.42
49943;BME280;36011;53.362;58.948;2023-04-29T09:01:11;97037.50;;;43.84;8.47
49943;BME280;36011;53.362;58.948;2023-04-29T09:07:34;97037.75;;;41.24;9.95
49943;BME280;36011;53.362;58.948;2023-04-29T09:10:39;97041.53;;;42.19;9.18
49943;BME280;36011;53.362;58.948;2023-04-29T09:13:44;97042.09;;;40.77;10.15
49943;BME280;36011;53.362;58.948;2023-04-29T09:16:47;97040.41;;;42.20;9.12
49943;BME280;36011;53.362;58.948;2023-04-29T09:19:51;97039.03;;;42.74;9.19
49943;BME280;36011;53.362;58.948;2023-04-29T09:23:04;97033.44;;;39.55;10.60
49943;BME280;36011;53.362;58.948;2023-04-29T09:26:08;97020.56;;;37.24;12.18
49943;BME280;36011;53.362;58.948;2023-04-29T09:29:12;97031.72;;;39.69;10.78
49943;BME280;36011;53.362;58.948;2023-04-29T09:32:17;97040.22;;;42.68;9.11
49943;BME280;36011;53.362;58.948;2023-04-29T09:38:22;97055.84;;;45.91;7.57
49943;BME280;36011;53.362;58.948;2023-04-29T09:41:25;97051.44;;;45.10;7.92
49943;BME280;36011;53.362;58.948;2023-04-29T09:44:29;97031.47;;;42.80;8.96
49943;BME280;36011;53.362;58.948;2023-04-29T09:47:33;97044.41;;;42.85;9.15
49943;BME280;36011;53.362;58.948;2023-04-29T09:50:39;97044.59;;;43.21;8.86
49943;BME280;36011;53.362;58.948;2023-04-29T09:53:42;97045.34;;;44.54;8.37
49943;BME280;36011;53.362;58.948;2023-04-29T09:56:49;97049.50;;;44.43;8.23
49943;BME280;36011;53.362;58.948;2023-04-29T09:59:53;97040.06;;;43.39;8.91
49943;BME280;36011;53.362;58.948;2023-04-29T10:02:57;97038.59;;;42.67;9.37
49943;BME280;36011;53.362;58.948;2023-04-29T10:06:00;97048.00;;;42.99;8.90
49943;BME280;36011;53.362;58.948;2023-04-29T10:09:04;97054.44;;;43.41;8.52
49943;BME280;36011;53.362;58.948;2023-04-29T10:12:09;97052.09;;;43.76;8.36
49943;BME280;36011;53.362;58.948;2023-04-29T10:18:19;97056.50;;;44.27;8.36
49943;BME280;36011;53.362;58.948;2023-04-29T10:21:27;97051.19;;;44.53;8.37
49943;BME280;36011;53.362;58.948;2023-04-29T10:24:34;97048.78;;;44.01;8.18
49943;BME280;36011;53.362;58.948;2023-04-29T10:27:41;97047.16;;;44.00;8.59
49943;BME280;36011;53.362;58.948;2023-04-29T10:30:49;97048.78;;;44.01;8.45
49943;BME280;36011;53.362;58.948;2023-04-29T10:33:56;97049.94;;;43.72;8.37
49943;BME280;36011;53.362;58.948;2023-04-29T10:37:00;97049.81;;;43.50;8.27
49943;BME280;36011;53.362;58.948;2023-04-29T10:43:05;97050.31;;;43.24;8.94
49943;BME280;36011;53.362;58.948;2023-04-29T10:46:18;97041.72;;;42.79;8.92
49943;BME280;36011;53.362;58.948;2023-04-29T10:49:21;97041.44;;;42.62;9.00
49943;BME280;36011;53.362;58.948;2023-04-29T10:52:24;97036.63;;;40.96;9.71
49943;BME280;36011;53.362;58.948;2023-04-29T10:55:28;97039.06;;;38.83;10.58
49943;BME280;36011;53.362;58.948;2023-04-29T11:08:11;97035.25;;;38.90;10.93
49943;BME280;36011;53.362;58.948;2023-04-29T11:11:14;97018.66;;;39.15;10.58
49943;BME280;36011;53.362;58.948;2023-04-29T11:14:25;97021.16;;;39.22;10.57
49943;BME280;36011;53.362;58.948;2023-04-29T11:17:33;97018.84;;;37.65;11.63
49943;BME280;36011;53.362;58.948;2023-04-29T11:23:58;97023.50;;;36.70;11.81
49943;BME280;36011;53.362;58.948;2023-04-29T11:27:02;97027.81;;;37.45;11.74
49943;BME280;36011;53.362;58.948;2023-04-29T11:30:08;97028.28;;;37.95;11.03
49943;BME280;36011;53.362;58.948;2023-04-29T11:33:12;97034.63;;;37.38;11.34
49943;BME280;36011;53.362;58.948;2023-04-29T11:36:15;97028.63;;;36.56;11.56
49943;BME280;36011;53.362;58.948;2023-04-29T11:39:18;97025.00;;;35.96;12.39
49943;BME280;36011;53.362;58.948;2023-04-29T11:42:22;97025.97;;;35.41;12.75
49943;BME280;36011;53.362;58.948;2023-04-29T11:45:24;97024.38;;;33.76;13.68
49943;BME280;36011;53.362;58.948;2023-04-29T11:48:28;97019.97;;;32.29;14.77
49943;BME280;36011;53.362;58.948;2023-04-29T11:51:34;97030.91;;;30.95;15.73
49943;BME280;36011;53.362;58.948;2023-04-29T11:54:39;97029.53;;;30.35;16.05
49943;BME280;36011;53.362;58.948;2023-04-29T11:57:43;97035.06;;;30.47;15.91
49943;BME280;36011;53.362;58.948;2023-04-29T12:00:46;97038.06;;;30.01;16.27
49943;BME280;36011;53.362;58.948;2023-04-29T12:03:48;97031.38;;;29.78;16.92
49943;BME280;36011;53.362;58.948;2023-04-29T12:06:56;97029.84;;;29.37;17.27
49943;BME280;36011;53.362;58.948;2023-04-29T12:09:59;97037.00;;;29.25;17.48
49943;BME280;36011;53.362;58.948;2023-04-29T12:13:03;97038.69;;;29.13;17.39
49943;BME280;36011;53.362;58.948;2023-04-29T12:16:06;97040.34;;;29.14;17.61
49943;BME280;36011;53.362;58.948;2023-04-29T12:19:09;97034.50;;;29.17;17.62
49943;BME280;36011;53.362;58.948;2023-04-29T12:22:13;97029.94;;;29.11;17.94
49943;BME280;36011;53.362;58.948;2023-04-29T12:25:19;97031.84;;;28.83;18.07
49943;BME280;36011;53.362;58.948;2023-04-29T12:28:26;97033.75;;;28.50;17.96
49943;BME280;36011;53.362;58.948;2023-04-29T12:31:32;97030.38;;;28.81;17.60
49943;BME280;36011;53.362;58.948;2023-04-29T12:34:38;97037.88;;;28.92;17.56
49943;BME280;36011;53.362;58.948;2023-04-29T12:37:42;97033.31;;;28.86;17.51
49943;BME280;36011;53.362;58.948;2023-04-29T12:40:46;97039.16;;;28.63;17.75
49943;BME280;36011;53.362;58.948;2023-04-29T12:43:49;97031.28;;;28.48;17.94
49943;BME280;36011;53.362;58.948;2023-04-29T12:46:53;97034.59;;;28.43;17.91
49943;BME280;36011;53.362;58.948;2023-04-29T12:49:57;97030.00;;;28.44;17.87
49943;BME280;36011;53.362;58.948;2023-04-29T12:53:01;97028.31;;;28.36;17.99
49943;BME280;36011;53.362;58.948;2023-04-29T12:56:06;97028.34;;;28.43;17.84
49943;BME280;36011;53.362;58.948;2023-04-29T12:59:09;97023.53;;;28.58;17.66
49943;BME280;36011;53.362;58.948;2023-04-29T13:02:13;97022.81;;;27.76;18.56
49943;BME280;36011;53.362;58.948;2023-04-29T13:05:16;97021.72;;;27.09;19.08
49943;BME280;36011;53.362;58.948;2023-04-29T13:08:20;97023.97;;;26.71;18.96
49943;BME280;36011;53.362;58.948;2023-04-29T13:11:23;97019.91;;;26.54;19.44
49943;BME280;36011;53.362;58.948;2023-04-29T13:14:27;97017.69;;;26.14;19.55
49943;BME280;36011;53.362;58.948;2023-04-29T13:17:30;97017.13;;;25.97;20.03
49943;BME280;36011;53.362;58.948;2023-04-29T13:20:34;97012.53;;;25.55;21.01
49943;BME280;36011;53.362;58.948;2023-04-29T13:23:38;97012.59;;;24.96;21.36
49943;BME280;36011;53.362;58.948;2023-04-29T13:26:40;97018.88;;;24.44;21.57
49943;BME280;36011;53.362;58.948;2023-04-29T13:29:44;97013.44;;;24.29;21.59
49943;BME280;36011;53.362;58.948;2023-04-29T13:32:47;97014.81;;;24.25;21.65
49943;BME280;36011;53.362;58.948;2023-04-29T13:35:50;97010.47;;;24.24;21.77
49943;BME280;36011;53.362;58.948;2023-04-29T13:38:54;97020.28;;;24.16;21.49
49943;BME280;36011;53.362;58.948;2023-04-29T13:41:58;97016.28;;;24.12;21.41
49943;BME280;36011;53.362;58.948;2023-04-29T13:45:01;97020.03;;;24.03;21.63
49943;BME280;36011;53.362;58.948;2023-04-29T13:48:06;97014.22;;;24.14;22.15
49943;BME280;36011;53.362;58.948;2023-04-29T13:51:09;97025.63;;;23.79;22.58
49943;BME280;36011;53.362;58.948;2023-04-29T13:54:13;97016.13;;;23.60;22.59
49943;BME280;36011;53.362;58.948;2023-04-29T13:57:17;97019.41;;;23.47;22.85
49943;BME280;36011;53.362;58.948;2023-04-29T14:00:20;97017.53;;;23.24;22.82
49943;BME280;36011;53.362;58.948;2023-04-29T14:03:24;97025.59;;;23.16;22.88
49943;BME280;36011;53.362;58.948;2023-04-29T14:06:28;97023.31;;;23.05;22.59
49943;BME280;36011;53.362;58.948;2023-04-29T14:09:33;97022.97;;;22.92;23.24
49943;BME280;36011;53.362;58.948;2023-04-29T14:12:35;97018.19;;;22.79;23.00
49943;BME280;36011;53.362;58.948;2023-04-29T14:15:38;97011.69;;;22.65;23.03
49943;BME280;36011;53.362;58.948;2023-04-29T14:18:40;97015.69;;;22.69;23.89
49943;BME280;36011;53.362;58.948;2023-04-29T14:21:44;97016.41;;;22.22;23.75
49943;BME280;36011;53.362;58.948;2023-04-29T14:24:48;97009.06;;;22.00;24.24
49943;BME280;36011;53.362;58.948;2023-04-29T14:27:52;97016.91;;;21.85;24.16
49943;BME280;36011;53.362;58.948;2023-04-29T14:30:56;97013.69;;;21.65;24.42
49943;BME280;36011;53.362;58.948;2023-04-29T14:34:00;97015.03;;;21.52;24.62
49943;BME280;36011;53.362;58.948;2023-04-29T14:37:04;97021.66;;;21.32;25.25
49943;BME280;36011;53.362;58.948;2023-04-29T14:40:08;97020.97;;;21.30;26.01
49943;BME280;36011;53.362;58.948;2023-04-29T14:43:10;97023.88;;;21.02;25.80
49943;BME280;36011;53.362;58.948;2023-04-29T14:46:13;97023.28;;;20.82;25.53
49943;BME280;36011;53.362;58.948;2023-04-29T14:49:17;97022.38;;;20.66;25.60
49943;BME280;36011;53.362;58.948;2023-04-29T14:52:20;97019.41;;;20.51;25.77
49943;BME280;36011;53.362;58.948;2023-04-29T14:55:24;97026.63;;;20.32;26.09
49943;BME280;36011;53.362;58.948;2023-04-29T14:58:28;97020.34;;;20.15;25.87
49943;BME280;36011;53.362;58.948;2023-04-29T15:01:31;97033.97;;;20.04;26.96
49943;BME280;36011;53.362;58.948;2023-04-29T15:04:35;97030.59;;;19.84;26.99
49943;BME280;36011;53.362;58.948;2023-04-29T15:07:40;97032.31;;;19.67;26.93
49943;BME280;36011;53.362;58.948;2023-04-29T15:10:45;97034.09;;;19.49;26.72
49943;BME280;36011;53.362;58.948;2023-04-29T15:13:48;97040.94;;;19.34;27.09
49943;BME280;36011;53.362;58.948;2023-04-29T15:16:51;97037.88;;;19.28;28.16
49943;BME280;36011;53.362;58.948;2023-04-29T15:19:53;97042.09;;;19.03;27.81
49943;BME280;36011;53.362;58.948;2023-04-29T15:22:57;97041.56;;;18.90;28.21
49943;BME280;36011;53.362;58.948;2023-04-29T15:26:00;97043.75;;;18.77;29.25
49943;BME280;36011;53.362;58.948;2023-04-29T15:29:03;97046.41;;;18.67;29.08
49943;BME280;36011;53.362;58.948;2023-04-29T15:32:06;97045.47;;;18.58;29.09
49943;BME280;36011;53.362;58.948;2023-04-29T15:35:07;97055.75;;;18.44;28.90
49943;BME280;36011;53.362;58.948;2023-04-29T15:38:10;97055.75;;;18.44;30.04
49943;BME280;36011;53.362;58.948;2023-04-29T15:41:13;97060.13;;;18.25;29.41
49943;BME280;36011;53.362;58.948;2023-04-29T15:44:16;97059.88;;;18.09;29.50
49943;BME280;36011;53.362;58.948;2023-04-29T15:47:20;97062.09;;;17.94;29.81
49943;BME280;36011;53.362;58.948;2023-04-29T15:50:23;97070.09;;;17.94;30.60
49943;BME280;36011;53.362;58.948;2023-04-29T15:53:26;97071.34;;;17.80;31.18
49943;BME280;36011;53.362;58.948;2023-04-29T15:56:30;97070.22;;;17.73;30.77
49943;BME280;36011;53.362;58.948;2023-04-29T15:59:34;97067.13;;;17.58;30.75
49943;BME280;36011;53.362;58.948;2023-04-29T16:02:37;97067.66;;;17.42;30.75
49943;BME280;36011;53.362;58.948;2023-04-29T16:05:40;97076.06;;;17.47;31.33
49943;BME280;36011;53.362;58.948;2023-04-29T16:08:43;97072.97;;;17.33;31.16
49943;BME280;36011;53.362;58.948;2023-04-29T16:11:46;97080.78;;;17.24;31.12
49943;BME280;36011;53.362;58.948;2023-04-29T16:14:50;97077.13;;;17.16;31.67
49943;BME280;36011;53.362;58.948;2023-04-29T16:17:54;97082.00;;;17.11;30.76
49943;BME280;36011;53.362;58.948;2023-04-29T16:20:57;97081.00;;;17.02;31.09
49943;BME280;36011;53.362;58.948;2023-04-29T16:24:01;97085.13;;;16.95;31.41
49943;BME280;36011;53.362;58.948;2023-04-29T16:27:04;97080.50;;;16.87;30.94
49943;BME280;36011;53.362;58.948;2023-04-29T16:30:08;97083.84;;;16.79;31.05
49943;BME280;36011;53.362;58.948;2023-04-29T16:33:12;97085.88;;;16.76;31.38
49943;BME280;36011;53.362;58.948;2023-04-29T16:36:15;97084.16;;;16.65;31.96
49943;BME280;36011;53.362;58.948;2023-04-29T16:39:18;97087.47;;;16.57;31.53
49943;BME280;36011;53.362;58.948;2023-04-29T16:42:22;97092.56;;;16.49;31.56
49943;BME280;36011;53.362;58.948;2023-04-29T16:45:25;97092.72;;;16.48;31.73
49943;BME280;36011;53.362;58.948;2023-04-29T16:48:29;97094.28;;;16.50;32.10